createdAt,value
2022-07-31T00:02:08.040Z,101032.81
2022-07-31T00:04:34.589Z,100967.78
2022-07-31T00:07:01.423Z,101011.59
2022-07-31T00:09:52.541Z,100963.94
2022-07-31T00:12:38.420Z,100975.88
2022-07-31T00:15:06.983Z,100919.69
2022-07-31T00:17:34.030Z,100964.06
2022-07-31T00:20:00.470Z,100983.84
2022-07-31T00:22:26.867Z,100953.94
2022-07-31T00:24:53.333Z,100992.66
2022-07-31T00:27:19.783Z,100937.00
2022-07-31T00:29:46.497Z,100983.38
2022-07-31T00:32:13.061Z,100995.66
2022-07-31T00:34:39.508Z,100978.81
2022-07-31T00:37:06.332Z,100954.03
2022-07-31T00:39:33.121Z,100988.56
2022-07-31T00:41:59.634Z,100920.38
2022-07-31T00:44:26.193Z,100960.41
2022-07-31T00:46:52.691Z,101012.56
2022-07-31T00:49:19.937Z,100845.94
2022-07-31T00:51:46.466Z,100894.56
2022-07-31T00:54:16.281Z,100988.59
2022-07-31T00:56:50.048Z,100983.25
2022-07-31T00:59:16.811Z,100933.47
2022-07-31T01:01:51.146Z,100872.78
2022-07-31T01:04:19.713Z,100935.38
2022-07-31T01:06:47.531Z,101018.88
2022-07-31T01:09:17.338Z,100978.38
2022-07-31T01:11:50.585Z,101010.53
2022-07-31T01:14:20.226Z,100939.13
2022-07-31T01:16:49.238Z,100924.47
2022-07-31T01:19:37.903Z,101013.66
2022-07-31T01:22:43.967Z,101012.59
2022-07-31T01:25:10.338Z,101021.78
2022-07-31T01:27:56.288Z,101031.44
2022-07-31T01:30:30.466Z,100964.28
2022-07-31T01:33:02.338Z,101032.06
2022-07-31T01:35:35.058Z,100959.03
2022-07-31T01:38:13.104Z,100995.50
2022-07-31T01:40:46.553Z,100909.75
2022-07-31T01:43:19.046Z,100943.13
2022-07-31T01:45:48.007Z,100900.13
2022-07-31T01:48:17.147Z,101014.28
2022-07-31T01:50:47.154Z,101006.00
2022-07-31T01:53:20.156Z,100926.34
2022-07-31T01:56:00.896Z,101011.97
2022-07-31T01:58:34.813Z,101011.34
2022-07-31T02:01:03.644Z,100884.09
2022-07-31T02:03:43.420Z,100883.69
2022-07-31T02:06:13.400Z,100901.41
2022-07-31T02:08:40.504Z,100906.88
2022-07-31T02:11:08.539Z,100909.34
2022-07-31T02:13:37.353Z,100934.78
2022-07-31T02:16:05.578Z,100927.16
2022-07-31T02:18:34.074Z,100924.94
2022-07-31T02:21:00.640Z,100918.53
2022-07-31T02:23:27.075Z,100906.13
2022-07-31T02:25:54.473Z,100949.44
2022-07-31T02:28:22.184Z,100848.28
2022-07-31T02:30:49.771Z,100875.13
2022-07-31T02:33:23.113Z,100960.41
2022-07-31T02:35:51.558Z,100999.22
2022-07-31T02:38:23.395Z,100977.94
2022-07-31T02:40:53.210Z,101010.91
2022-07-31T02:43:21.093Z,100916.91
2022-07-31T02:45:48.366Z,100908.69
2022-07-31T02:48:15.407Z,100907.59
2022-07-31T02:50:42.970Z,100905.25
2022-07-31T02:53:09.756Z,100891.69
2022-07-31T02:55:36.871Z,100980.09
2022-07-31T02:58:06.175Z,100817.81
2022-07-31T03:00:32.982Z,100887.31
2022-07-31T03:02:59.415Z,100969.38
2022-07-31T03:05:25.912Z,100920.19
2022-07-31T03:07:52.585Z,101023.91
2022-07-31T03:10:19.098Z,100929.56
2022-07-31T03:12:52.670Z,100868.25
2022-07-31T03:15:22.331Z,100924.31
2022-07-31T03:17:49.926Z,100968.28
2022-07-31T03:20:17.124Z,100927.50
2022-07-31T03:22:44.330Z,100941.81
2022-07-31T03:25:11.482Z,100904.38
2022-07-31T03:27:52.501Z,100877.81
2022-07-31T03:30:26.393Z,100916.72
2022-07-31T03:32:54.272Z,100940.56
2022-07-31T03:35:21.124Z,100956.94
2022-07-31T03:37:47.560Z,100923.31
2022-07-31T03:40:14.097Z,100966.81
2022-07-31T03:42:41.858Z,100916.75
2022-07-31T03:45:10.814Z,100896.38
2022-07-31T03:47:37.736Z,100940.63
2022-07-31T03:50:04.725Z,100863.56
2022-07-31T03:52:31.457Z,100995.22
2022-07-31T03:54:57.915Z,100938.91
2022-07-31T03:57:30.249Z,100915.88
2022-07-31T04:00:02.334Z,101021.28
2022-07-31T04:02:29.755Z,100902.47
2022-07-31T04:04:57.307Z,100923.31
2022-07-31T04:07:24.495Z,100984.63
2022-07-31T04:09:51.438Z,101004.31
2022-07-31T04:12:17.921Z,100916.84
2022-07-31T04:14:44.620Z,100926.94
2022-07-31T04:17:12.111Z,101023.22
2022-07-31T04:19:39.273Z,100952.53
2022-07-31T04:22:06.854Z,101022.03
2022-07-31T04:24:34.047Z,100925.59
2022-07-31T04:27:00.743Z,100915.13
2022-07-31T04:29:29.825Z,100878.50
2022-07-31T04:31:57.182Z,100948.22
2022-07-31T04:34:23.646Z,100907.31
2022-07-31T04:36:50.193Z,100981.63
2022-07-31T04:39:16.828Z,100963.03
2022-07-31T04:41:43.283Z,100866.59
2022-07-31T04:44:10.447Z,100937.59
2022-07-31T04:46:37.153Z,100878.13
2022-07-31T04:49:03.755Z,100833.41
2022-07-31T04:51:30.339Z,100895.78
2022-07-31T04:53:56.767Z,100911.03
2022-07-31T04:56:42.087Z,100882.16
2022-07-31T04:59:16.277Z,100910.22
2022-07-31T05:01:43.804Z,101014.84
2022-07-31T05:04:10.974Z,100941.84
2022-07-31T05:06:43.617Z,101023.81
2022-07-31T05:09:18.695Z,100931.97
2022-07-31T05:11:47.226Z,100996.44
2022-07-31T05:14:15.354Z,101026.78
2022-07-31T05:16:42.216Z,100909.91
2022-07-31T05:19:13.818Z,100947.94
2022-07-31T05:21:47.119Z,100922.00
2022-07-31T05:24:33.093Z,101028.34
2022-07-31T05:27:01.490Z,100937.16
2022-07-31T05:29:27.974Z,100854.72
2022-07-31T05:31:59.407Z,100950.81
2022-07-31T05:34:29.205Z,101024.09
2022-07-31T05:36:56.728Z,100978.53
2022-07-31T05:39:25.055Z,100920.47
2022-07-31T05:41:52.695Z,100913.34
2022-07-31T05:44:19.109Z,100956.81
2022-07-31T05:46:45.591Z,100917.25
2022-07-31T05:49:12.090Z,100923.34
2022-07-31T05:51:38.595Z,100948.16
2022-07-31T05:54:05.076Z,100883.44
2022-07-31T05:56:31.504Z,100915.28
2022-07-31T05:58:58.008Z,100931.69
2022-07-31T06:01:24.459Z,100898.41
2022-07-31T06:03:51.914Z,100882.97
2022-07-31T06:06:19.294Z,100896.69
2022-07-31T06:08:45.739Z,100897.91
2022-07-31T06:11:12.191Z,100870.63
2022-07-31T06:13:38.857Z,100907.09
2022-07-31T06:16:11.978Z,100978.16
2022-07-31T06:18:38.486Z,100947.91
2022-07-31T06:21:04.908Z,100956.03
2022-07-31T06:23:32.412Z,101017.34
2022-07-31T06:25:59.199Z,100918.97
2022-07-31T06:28:47.476Z,100936.28
2022-07-31T06:31:19.939Z,100984.56
2022-07-31T06:33:48.469Z,101020.00
2022-07-31T06:36:15.735Z,101019.84
2022-07-31T06:38:42.172Z,100948.47
2022-07-31T06:41:08.603Z,100930.19
2022-07-31T06:43:35.045Z,100950.38
2022-07-31T06:46:01.519Z,100892.50
2022-07-31T06:48:28.399Z,100829.16
2022-07-31T06:51:14.470Z,100984.84
2022-07-31T06:53:41.489Z,100959.78
2022-07-31T06:56:07.924Z,100922.66
2022-07-31T06:58:34.437Z,100951.69
2022-07-31T07:01:00.975Z,100942.25
2022-07-31T07:03:27.414Z,100931.16
2022-07-31T07:05:53.851Z,100924.28
2022-07-31T07:08:20.249Z,100984.22
2022-07-31T07:10:46.902Z,100880.16
2022-07-31T07:13:13.324Z,100922.03
2022-07-31T07:15:39.742Z,100937.63
2022-07-31T07:18:06.938Z,100956.91
2022-07-31T07:20:33.580Z,100949.00
2022-07-31T07:23:00.125Z,100923.16
2022-07-31T07:25:26.553Z,100935.50
2022-07-31T07:27:53.738Z,100964.63
2022-07-31T07:30:20.334Z,100999.00
2022-07-31T07:32:46.743Z,100899.66
2022-07-31T07:35:13.484Z,100924.16
2022-07-31T07:37:40.902Z,100949.31
2022-07-31T07:40:08.746Z,101004.09
2022-07-31T07:42:35.503Z,100917.19
2022-07-31T07:45:02.811Z,100954.66
2022-07-31T07:48:05.770Z,100898.59
2022-07-31T07:50:19.582Z,100905.28
2022-07-31T07:52:46.200Z,100895.50
2022-07-31T07:55:12.739Z,100988.25
2022-07-31T07:57:40.171Z,100956.75
2022-07-31T08:00:09.566Z,100846.59
2022-07-31T08:02:36.449Z,100859.88
2022-07-31T08:05:03.063Z,100938.56
2022-07-31T08:07:42.176Z,100909.56
2022-07-31T08:10:10.285Z,100987.94
2022-07-31T08:12:37.184Z,100948.94
2022-07-31T08:15:05.527Z,100989.63
2022-07-31T08:17:31.951Z,100873.69
2022-07-31T08:19:58.373Z,100976.41
2022-07-31T08:22:24.836Z,100920.81
2022-07-31T08:24:51.388Z,100981.19
2022-07-31T08:27:24.022Z,100943.75
2022-07-31T08:30:07.079Z,100960.81
2022-07-31T08:32:33.593Z,100954.19
2022-07-31T08:35:00.119Z,100909.94
2022-07-31T08:38:02.710Z,100950.81
2022-07-31T08:40:13.142Z,100926.34
2022-07-31T08:42:39.650Z,100861.88
2022-07-31T08:45:08.099Z,100978.91
2022-07-31T08:47:36.137Z,100988.00
2022-07-31T08:50:05.532Z,100911.25
2022-07-31T08:52:34.703Z,100972.19
2022-07-31T08:55:06.870Z,100880.22
2022-07-31T08:57:34.219Z,100989.22
2022-07-31T09:00:00.628Z,100927.25
2022-07-31T09:02:27.102Z,100941.00
2022-07-31T09:04:54.618Z,100893.66
2022-07-31T09:07:21.026Z,100946.75
2022-07-31T09:09:51.148Z,100965.34
2022-07-31T09:12:38.990Z,100932.53
2022-07-31T09:15:19.729Z,100928.34
2022-07-31T09:17:53.894Z,100896.28
2022-07-31T09:20:33.103Z,100946.06
2022-07-31T09:23:08.054Z,100872.13
2022-07-31T09:25:34.827Z,100938.84
2022-07-31T09:28:06.444Z,100942.75
2022-07-31T09:30:34.159Z,100881.94
2022-07-31T09:33:19.040Z,100961.44
2022-07-31T09:35:52.730Z,100932.56
2022-07-31T09:38:20.559Z,100869.91
2022-07-31T09:40:55.167Z,100893.53
2022-07-31T09:43:31.806Z,100937.72
2022-07-31T09:45:59.933Z,100939.19
2022-07-31T09:48:28.812Z,100950.13
2022-07-31T09:51:04.606Z,100905.34
2022-07-31T09:53:53.496Z,100950.38
2022-07-31T09:56:35.994Z,100939.28
2022-07-31T09:59:03.173Z,100875.97
2022-07-31T10:01:30.920Z,100888.44
2022-07-31T10:04:00.567Z,100879.47
2022-07-31T10:06:31.617Z,100929.50
2022-07-31T10:08:59.942Z,100909.38
2022-07-31T10:11:27.915Z,100851.50
2022-07-31T10:13:57.035Z,100945.59
2022-07-31T10:16:27.369Z,100846.97
2022-07-31T10:18:59.521Z,100941.94
2022-07-31T10:21:32.221Z,100950.72
2022-07-31T10:24:00.663Z,100942.19
2022-07-31T10:26:50.746Z,100847.69
2022-07-31T10:29:17.562Z,100909.50
2022-07-31T10:31:46.233Z,100937.94
2022-07-31T10:34:15.545Z,100894.47
2022-07-31T10:36:44.997Z,100925.59
2022-07-31T10:39:49.279Z,100936.06
2022-07-31T10:42:19.629Z,100893.78
2022-07-31T10:44:55.418Z,100907.31
2022-07-31T10:47:22.151Z,100895.09
2022-07-31T10:49:49.741Z,100843.66
2022-07-31T10:52:37.168Z,100934.88
2022-07-31T10:55:27.274Z,100858.19
2022-07-31T10:57:57.163Z,100915.28
2022-07-31T11:00:28.353Z,100909.59
2022-07-31T11:02:56.979Z,100927.63
2022-07-31T11:05:24.548Z,100894.13
2022-07-31T11:08:05.430Z,100887.53
2022-07-31T11:10:34.120Z,100895.78
2022-07-31T11:13:08.869Z,100875.22
2022-07-31T11:15:37.407Z,100889.88
2022-07-31T11:18:24.888Z,100917.06
2022-07-31T11:21:13.326Z,100859.34
2022-07-31T11:23:56.093Z,100882.91
2022-07-31T11:26:32.805Z,100889.22
2022-07-31T11:30:00.452Z,100890.69
2022-07-31T11:31:58.633Z,100882.97
2022-07-31T11:34:26.019Z,100872.38
2022-07-31T11:36:52.536Z,100870.41
2022-07-31T11:39:19.014Z,100869.03
2022-07-31T11:41:52.563Z,100844.47
2022-07-31T11:44:22.173Z,100902.25
2022-07-31T11:46:51.195Z,100797.94
2022-07-31T11:49:47.959Z,100895.31
2022-07-31T11:52:30.799Z,100862.50
2022-07-31T11:55:10.027Z,100860.75
2022-07-31T11:57:52.423Z,100861.16
2022-07-31T12:00:29.250Z,100878.38
2022-07-31T12:02:57.658Z,100853.38
2022-07-31T12:05:38.845Z,100787.88
2022-07-31T12:08:07.737Z,100866.59
2022-07-31T12:10:34.876Z,100862.69
2022-07-31T12:13:02.347Z,100865.63
2022-07-31T12:15:28.811Z,100840.84
2022-07-31T12:18:08.108Z,100846.09
2022-07-31T12:20:36.506Z,100853.56
2022-07-31T12:23:05.690Z,100862.63
2022-07-31T12:25:43.227Z,100866.97
2022-07-31T12:28:10.148Z,100818.66
2022-07-31T12:30:36.849Z,100846.66
2022-07-31T12:33:08.041Z,100838.28
2022-07-31T12:35:55.655Z,100820.53
2022-07-31T12:38:40.760Z,100855.53
2022-07-31T12:41:08.150Z,100859.53
2022-07-31T12:43:37.631Z,100839.28
2022-07-31T12:46:06.857Z,100857.50
2022-07-31T12:48:38.593Z,100831.25
2022-07-31T12:51:06.725Z,100824.22
2022-07-31T12:53:33.218Z,100809.78
2022-07-31T12:55:59.593Z,100850.34
2022-07-31T12:58:26.028Z,100837.66
2022-07-31T13:00:54.696Z,100860.13
2022-07-31T13:03:21.398Z,100843.47
2022-07-31T13:05:51.752Z,100828.19
2022-07-31T13:08:18.652Z,100779.59
2022-07-31T13:10:46.098Z,100825.78
2022-07-31T13:13:12.617Z,100810.06
2022-07-31T13:15:39.201Z,100817.19
2022-07-31T13:18:05.792Z,100801.16
2022-07-31T13:20:32.824Z,100761.38
2022-07-31T13:22:59.592Z,100826.03
2022-07-31T13:25:28.357Z,100789.00
2022-07-31T13:27:54.771Z,100805.50
2022-07-31T13:30:21.179Z,100742.66
2022-07-31T13:32:47.611Z,100787.47
2022-07-31T13:35:25.970Z,100815.03
2022-07-31T13:37:55.217Z,100835.13
2022-07-31T13:40:40.413Z,100812.94
2022-07-31T13:43:06.877Z,100842.81
2022-07-31T13:45:33.264Z,100833.13
2022-07-31T13:48:00.989Z,100802.03
2022-07-31T13:50:28.836Z,100801.69
2022-07-31T13:52:57.648Z,100814.03
2022-07-31T13:55:25.443Z,100779.31
2022-07-31T13:57:52.375Z,100780.63
2022-07-31T14:00:21.986Z,100797.25
2022-07-31T14:02:49.964Z,100718.69
2022-07-31T14:05:16.635Z,100799.50
2022-07-31T14:07:48.212Z,100807.84
2022-07-31T14:10:20.575Z,100773.13
2022-07-31T14:12:47.988Z,100760.06
2022-07-31T14:15:14.570Z,100767.03
2022-07-31T14:17:41.035Z,100756.66
2022-07-31T14:20:08.122Z,100739.09
2022-07-31T14:22:34.769Z,100766.31
2022-07-31T14:25:01.198Z,100787.84
2022-07-31T14:27:27.677Z,100748.94
2022-07-31T14:29:54.162Z,100774.66
2022-07-31T14:32:22.012Z,100729.81
2022-07-31T14:34:51.608Z,100727.50
2022-07-31T14:37:18.475Z,100743.63
2022-07-31T14:39:44.976Z,100790.94
2022-07-31T14:42:12.337Z,100805.00
2022-07-31T14:44:41.867Z,100793.84
2022-07-31T14:47:10.404Z,100793.97
2022-07-31T14:50:08.996Z,100792.53
2022-07-31T14:52:23.846Z,100788.75
2022-07-31T14:54:50.398Z,100770.59
2022-07-31T14:57:20.129Z,100776.38
2022-07-31T14:59:49.897Z,100770.44
2022-07-31T15:02:21.450Z,100769.72
2022-07-31T15:04:48.892Z,100765.75
2022-07-31T15:07:34.346Z,100740.22
2022-07-31T15:10:04.120Z,100783.88
2022-07-31T15:12:30.628Z,100774.69
2022-07-31T15:14:57.074Z,100776.28
2022-07-31T15:17:23.676Z,100775.66
2022-07-31T15:19:50.374Z,100774.25
2022-07-31T15:22:19.710Z,100766.91
2022-07-31T15:24:49.629Z,100766.31
2022-07-31T15:27:21.549Z,100760.63
2022-07-31T15:30:00.440Z,100784.97
2022-07-31T15:32:33.746Z,100765.38
2022-07-31T15:35:00.247Z,100753.31
2022-07-31T15:37:26.705Z,100738.13
2022-07-31T15:40:02.824Z,100710.53
2022-07-31T15:42:32.017Z,100727.22
2022-07-31T15:44:58.822Z,100742.56
2022-07-31T15:47:25.421Z,100743.09
2022-07-31T15:49:51.821Z,100688.66
2022-07-31T15:52:19.288Z,100757.13
2022-07-31T15:54:46.702Z,100745.09
2022-07-31T15:57:13.474Z,100709.78
2022-07-31T15:59:39.997Z,100726.06
2022-07-31T16:02:07.213Z,100737.38
2022-07-31T16:04:34.851Z,100736.69
2022-07-31T16:08:29.871Z,100719.50
2022-07-31T16:10:14.857Z,100717.00
2022-07-31T16:12:35.404Z,100760.06
2022-07-31T16:15:02.452Z,100762.81
2022-07-31T16:17:37.742Z,100718.63
2022-07-31T16:20:07.058Z,100750.16
2022-07-31T16:22:33.716Z,100728.91
2022-07-31T16:25:00.107Z,100727.22
2022-07-31T16:27:26.657Z,100708.56
2022-07-31T16:29:59.404Z,100711.09
2022-07-31T16:32:28.604Z,100742.16
2022-07-31T16:34:58.476Z,100716.00
2022-07-31T16:37:50.252Z,100746.94
2022-07-31T16:40:28.682Z,100686.50
2022-07-31T16:43:02.020Z,100755.91
2022-07-31T16:45:29.645Z,100705.44
2022-07-31T16:47:56.875Z,100656.16
2022-07-31T16:50:23.754Z,100641.94
2022-07-31T16:52:54.562Z,100648.41
2022-07-31T16:55:51.669Z,100700.78
2022-07-31T16:58:11.484Z,100712.84
2022-07-31T17:00:39.271Z,100720.66
2022-07-31T17:03:06.005Z,100649.94
2022-07-31T17:05:32.467Z,100733.84
2022-07-31T17:07:59.031Z,100686.50
2022-07-31T17:10:26.188Z,100658.13
2022-07-31T17:12:53.616Z,100674.00
2022-07-31T17:15:20.688Z,100747.34
2022-07-31T17:17:47.390Z,100685.03
2022-07-31T17:20:14.981Z,100689.75
2022-07-31T17:22:41.562Z,100651.63
2022-07-31T17:25:09.830Z,100742.72
2022-07-31T17:27:36.325Z,100674.22
2022-07-31T17:30:03.476Z,100709.53
2022-07-31T17:32:32.060Z,100657.28
2022-07-31T17:34:58.460Z,100668.25
2022-07-31T17:37:25.144Z,100748.59
2022-07-31T17:39:55.169Z,100701.38
2022-07-31T17:42:25.208Z,100721.28
2022-07-31T17:44:55.263Z,100738.22
2022-07-31T17:47:25.448Z,100745.91
2022-07-31T17:49:52.905Z,100739.75
2022-07-31T17:52:20.866Z,100730.75
2022-07-31T17:54:47.928Z,100755.78
2022-07-31T17:57:14.624Z,100754.19
2022-07-31T17:59:43.292Z,100725.31
2022-07-31T18:02:10.444Z,100765.47
2022-07-31T18:04:37.632Z,100745.53
2022-07-31T18:07:05.900Z,100763.66
2022-07-31T18:09:33.089Z,100747.53
2022-07-31T18:11:59.924Z,100765.59
2022-07-31T18:14:26.497Z,100741.75
2022-07-31T18:16:53.535Z,100790.22
2022-07-31T18:19:21.772Z,100760.53
2022-07-31T18:21:48.812Z,100718.59
2022-07-31T18:24:15.282Z,100731.03
2022-07-31T18:26:41.747Z,100738.09
2022-07-31T18:29:08.259Z,100758.63
2022-07-31T18:31:35.961Z,100762.72
2022-07-31T18:34:04.823Z,100734.78
2022-07-31T18:36:32.566Z,100764.63
2022-07-31T18:38:59.027Z,100780.47
2022-07-31T18:41:25.502Z,100783.16
2022-07-31T18:43:52.045Z,100776.81
2022-07-31T18:46:19.918Z,100795.56
2022-07-31T18:48:46.471Z,100727.13
2022-07-31T18:51:13.018Z,100787.03
2022-07-31T18:53:39.469Z,100750.53
2022-07-31T18:56:05.940Z,100745.47
2022-07-31T18:58:32.388Z,100756.38
2022-07-31T19:00:58.868Z,100737.84
2022-07-31T19:03:26.264Z,100752.16
2022-07-31T19:05:53.616Z,100808.91
2022-07-31T19:08:20.452Z,100810.19
2022-07-31T19:10:49.116Z,100719.41
2022-07-31T19:13:19.065Z,100829.53
2022-07-31T19:15:51.545Z,100812.72
2022-07-31T19:18:20.408Z,100816.59
2022-07-31T19:21:00.295Z,100828.16
2022-07-31T19:23:41.558Z,100839.47
2022-07-31T19:26:09.968Z,100819.47
2022-07-31T19:28:36.701Z,100753.34
2022-07-31T19:31:03.561Z,100778.91
2022-07-31T19:33:30.117Z,100786.72
2022-07-31T19:36:02.023Z,100770.59
2022-07-31T19:38:33.058Z,100780.06
2022-07-31T19:41:00.091Z,100849.00
2022-07-31T19:43:26.800Z,100794.13
2022-07-31T19:45:58.804Z,100802.44
2022-07-31T19:48:39.575Z,100777.03
2022-07-31T19:51:06.341Z,100844.31
2022-07-31T19:53:32.759Z,100842.06
2022-07-31T19:56:01.505Z,100802.06
2022-07-31T19:58:27.929Z,100826.88
2022-07-31T20:00:54.344Z,100853.56
2022-07-31T20:03:20.837Z,100874.94
2022-07-31T20:05:47.292Z,100859.88
2022-07-31T20:08:13.686Z,100867.66
2022-07-31T20:10:40.105Z,100852.28
2022-07-31T20:13:06.491Z,100869.81
2022-07-31T20:15:51.204Z,100847.59
2022-07-31T20:18:27.404Z,100858.13
2022-07-31T20:20:56.915Z,100863.47
2022-07-31T20:23:23.782Z,100863.25
2022-07-31T20:25:50.237Z,100849.13
2022-07-31T20:28:16.850Z,100874.72
2022-07-31T20:30:43.253Z,100846.56
2022-07-31T20:33:11.140Z,100866.41
2022-07-31T20:35:47.769Z,100864.63
2022-07-31T20:38:16.651Z,100888.69
2022-07-31T20:40:48.021Z,100906.06
2022-07-31T20:43:21.055Z,100905.19
2022-07-31T20:45:48.186Z,100882.81
2022-07-31T20:48:17.575Z,100867.22
2022-07-31T20:50:44.062Z,100853.22
2022-07-31T20:53:14.615Z,100888.69
2022-07-31T20:55:41.046Z,100883.13
2022-07-31T20:58:07.473Z,100892.31
2022-07-31T21:00:37.991Z,100824.91
2022-07-31T21:03:05.819Z,100886.34
2022-07-31T21:05:32.468Z,100850.34
2022-07-31T21:07:58.998Z,100867.00
2022-07-31T21:10:29.539Z,100880.88
2022-07-31T21:12:56.716Z,100876.84
2022-07-31T21:15:31.189Z,100896.63
2022-07-31T21:18:11.283Z,100878.09
2022-07-31T21:20:50.016Z,100873.84
2022-07-31T21:23:23.822Z,100873.84
2022-07-31T21:25:52.461Z,100898.94
2022-07-31T21:28:19.388Z,100855.06
2022-07-31T21:30:46.197Z,100864.22
2022-07-31T21:33:12.687Z,100895.00
2022-07-31T21:35:40.159Z,100857.16
2022-07-31T21:38:12.154Z,100895.13
2022-07-31T21:40:39.881Z,100861.75
2022-07-31T21:43:06.715Z,100855.25
2022-07-31T21:45:50.670Z,100881.44
2022-07-31T21:48:22.287Z,100878.97
2022-07-31T21:50:49.059Z,100899.28
2022-07-31T21:53:15.694Z,100905.69
2022-07-31T21:55:42.372Z,100883.03
2022-07-31T21:58:09.268Z,100887.09
2022-07-31T22:00:35.959Z,100898.84
2022-07-31T22:03:02.894Z,100858.03
2022-07-31T22:05:48.988Z,100889.22
2022-07-31T22:08:16.333Z,100891.78
2022-07-31T22:10:42.994Z,100892.75
2022-07-31T22:13:09.641Z,100909.78
2022-07-31T22:15:58.906Z,100906.13
2022-07-31T22:18:22.819Z,100904.28
2022-07-31T22:20:53.129Z,100897.78
2022-07-31T22:23:19.804Z,100898.84
2022-07-31T22:25:48.810Z,100900.34
2022-07-31T22:28:18.680Z,100898.41
2022-07-31T22:30:45.635Z,100883.22
2022-07-31T22:33:12.279Z,100912.31
2022-07-31T22:35:40.540Z,100899.59
2022-07-31T22:38:07.805Z,100929.19
2022-07-31T22:40:34.358Z,100905.47
2022-07-31T22:43:02.581Z,100922.56
2022-07-31T22:45:30.006Z,100893.50
2022-07-31T22:47:57.402Z,100874.47
2022-07-31T22:50:23.970Z,100898.09
2022-07-31T22:52:50.395Z,100918.06
2022-07-31T22:55:16.885Z,100903.84
2022-07-31T22:57:46.264Z,100925.75
2022-07-31T23:00:14.618Z,100906.44
2022-07-31T23:02:42.149Z,100899.91
2022-07-31T23:05:09.241Z,100875.34
2022-07-31T23:07:35.773Z,100913.06
2022-07-31T23:10:02.405Z,100888.47
2022-07-31T23:12:29.481Z,100876.94
2022-07-31T23:14:56.067Z,100900.09
2022-07-31T23:17:23.522Z,100924.78
2022-07-31T23:19:53.739Z,100921.19
2022-07-31T23:22:33.190Z,100916.03
2022-07-31T23:25:01.950Z,100956.25
2022-07-31T23:27:28.515Z,100954.94
2022-07-31T23:29:55.027Z,100939.66
2022-07-31T23:32:21.528Z,100926.72
2022-07-31T23:34:48.008Z,100964.56
2022-07-31T23:37:14.519Z,100945.91
2022-07-31T23:39:41.106Z,100934.13
2022-07-31T23:42:26.174Z,100920.50
2022-07-31T23:44:52.583Z,100968.25
2022-07-31T23:47:19.168Z,100911.84
2022-07-31T23:49:46.562Z,100928.84
2022-07-31T23:52:12.990Z,100912.06
2022-07-31T23:54:39.572Z,100957.13
2022-07-31T23:57:06.027Z,100936.00
2022-07-31T23:59:32.410Z,100932.13
